Time;durP1;ratioP1;P1;durP2;ratioP2;P2;SDS_P1;SDS_P2;PMS_P1;PMS_P2;Temp;Humidity;BMP_temperature;BMP_pressure;BME280_temperature;BME280_humidity;BME280_pressure;Samples;Min_cycle;Max_cycle;Signal;HPM_P1;HPM_P2
2021/01/04 00:00:49;;;;;;;1.20;1.20;;;2.00;98.00;;;;;;5049302;28;20464;-65
2021/01/04 00:03:42;;;;;;;2.73;1.80;;;2.10;98.00;;;;;;5051565;28;20453;-65
2021/01/04 00:06:33;;;;;;;1.60;1.50;;;2.20;98.00;;;;;;5049843;28;20456;-65
2021/01/04 00:09:15;;;;;;;1.93;1.73;;;2.20;98.00;;;;;;5051507;28;20940;-64
2021/01/04 00:11:51;;;;;;;1.73;1.63;;;2.10;98.00;;;;;;5049192;28;20488;-66
2021/01/04 00:14:33;;;;;;;1.87;1.30;;;2.10;98.00;;;;;;5051463;28;20474;-66
2021/01/04 00:17:09;;;;;;;2.17;1.67;;;2.00;98.00;;;;;;5051210;28;20487;-65
2021/01/04 00:19:43;;;;;;;2.70;1.97;;;1.90;98.00;;;;;;5049201;28;20464;-65
2021/01/04 00:22:20;;;;;;;1.40;1.30;;;1.80;98.00;;;;;;5051139;28;20471;-67
2021/01/04 00:24:49;;;;;;;2.47;1.63;;;1.80;98.00;;;;;;5048970;28;20464;-66
2021/01/04 00:27:26;;;;;;;1.50;1.47;;;1.80;98.00;;;;;;5051226;28;20453;-65
2021/01/04 00:29:58;;;;;;;3.07;2.10;;;1.80;98.00;;;;;;5049119;28;20460;-64
2021/01/04 00:32:34;;;;;;;1.20;1.10;;;1.80;98.00;;;;;;5050932;28;20489;-64
2021/01/04 00:35:07;;;;;;;1.70;1.60;;;1.70;98.00;;;;;;5048964;28;20464;-65
2021/01/04 00:38:12;;;;;;;1.67;1.57;;;1.70;98.00;;;;;;5051024;28;20550;-64
2021/01/04 00:41:04;;;;;;;6.70;1.60;;;1.90;98.00;;;;;;5048775;28;20522;-67
2021/01/04 00:43:37;;;;;;;2.40;1.50;;;2.00;98.00;;;;;;5050777;28;20460;-66
2021/01/04 00:46:04;;;;;;;2.73;2.13;;;1.90;98.00;;;;;;5049643;28;20532;-64
2021/01/04 00:48:37;;;;;;;3.23;1.90;;;1.80;98.00;;;;;;5054650;28;20456;-64
2021/01/04 00:51:22;;;;;;;2.70;1.53;;;1.80;98.00;;;;;;5052822;28;20465;-64
2021/01/04 00:53:51;;;;;;;1.20;1.20;;;1.90;98.00;;;;;;5054632;28;20460;-65
2021/01/04 00:56:42;;;;;;;1.20;1.10;;;2.00;98.00;;;;;;5052546;28;20464;-64
2021/01/04 00:59:30;;;;;;;1.30;1.20;;;1.90;98.00;;;;;;5054248;28;20505;-65
2021/01/04 01:02:15;;;;;;;1.17;1.13;;;1.90;98.00;;;;;;5054347;28;20457;-64
2021/01/04 01:04:52;;;;;;;2.63;2.23;;;2.00;98.00;;;;;;5052291;28;20469;-65
2021/01/04 01:07:38;;;;;;;1.77;1.20;;;2.00;98.00;;;;;;5054532;28;20852;-67
2021/01/04 01:10:10;;;;;;;2.00;1.90;;;2.10;98.00;;;;;;5052606;28;20460;-65
2021/01/04 01:12:47;;;;;;;2.13;1.07;;;2.20;98.00;;;;;;5054590;28;20969;-66
2021/01/04 01:15:22;;;;;;;2.50;1.83;;;2.20;98.00;;;;;;5052433;28;20788;-64
2021/01/04 01:18:16;;;;;;;1.10;1.00;;;2.10;98.00;;;;;;5052975;28;20468;-65
2021/01/04 01:20:51;;;;;;;1.77;1.67;;;2.20;98.00;;;;;;5050582;28;20461;-64
2021/01/04 01:23:18;;;;;;;1.17;1.13;;;2.30;98.00;;;;;;5052360;28;20455;-64
2021/01/04 01:25:50;;;;;;;4.80;1.97;;;2.30;98.00;;;;;;5051697;28;20460;-65
2021/01/04 01:28:53;;;;;;;1.17;1.10;;;2.40;98.00;;;;;;5054144;28;20463;-64
2021/01/04 01:31:49;;;;;;;1.20;1.20;;;2.40;98.00;;;;;;5040538;28;20504;-67
2021/01/04 01:34:24;;;;;;;1.40;1.30;;;2.30;98.00;;;;;;5048946;28;20939;-67
2021/01/04 01:37:23;;;;;;;1.47;1.43;;;2.30;98.00;;;;;;5051935;28;20822;-65
2021/01/04 01:40:03;;;;;;;1.80;1.70;;;2.30;98.00;;;;;;5051594;28;20488;-64
2021/01/04 01:43:17;;;;;;;1.63;1.53;;;2.40;98.00;;;;;;5053880;28;20944;-65
2021/01/04 01:45:51;;;;;;;2.50;1.60;;;2.40;98.00;;;;;;5009190;28;20502;-65
2021/01/04 01:48:32;;;;;;;1.30;1.23;;;2.40;98.00;;;;;;5011266;28;20462;-64
2021/01/04 01:51:04;;;;;;;1.10;1.00;;;2.40;98.00;;;;;;5034059;28;20510;-66
2021/01/04 01:53:42;;;;;;;1.43;1.33;;;2.30;98.00;;;;;;5053612;28;20565;-65
2021/01/04 01:56:17;;;;;;;2.50;2.00;;;2.30;98.00;;;;;;5051503;28;20460;-64
2021/01/04 01:59:05;;;;;;;1.10;1.00;;;2.30;98.00;;;;;;5052756;28;20898;-64
2021/01/04 02:01:39;;;;;;;1.10;1.00;;;2.10;98.00;;;;;;5051232;28;20457;-64
2021/01/04 02:04:18;;;;;;;4.90;4.20;;;1.90;98.00;;;;;;5053325;28;20466;-66
2021/01/04 02:06:58;;;;;;;1.63;1.63;;;1.90;98.00;;;;;;5051189;28;20879;-65
2021/01/04 02:09:30;;;;;;;1.10;1.00;;;2.00;98.00;;;;;;5053116;28;20461;-66
2021/01/04 02:12:09;;;;;;;1.20;1.20;;;2.10;98.00;;;;;;5051316;28;20484;-65
2021/01/04 02:14:42;;;;;;;1.37;1.37;;;2.10;98.00;;;;;;5053099;28;20971;-65
2021/01/04 02:17:51;;;;;;;1.43;1.23;;;2.10;98.00;;;;;;5053308;28;20779;-65
2021/01/04 02:20:53;;;;;;;1.40;1.30;;;2.20;98.00;;;;;;5051067;28;20464;-65
2021/01/04 02:23:32;;;;;;;2.47;2.20;;;2.30;98.00;;;;;;5035090;28;20461;-67
2021/01/04 02:26:09;;;;;;;1.33;1.27;;;2.30;98.00;;;;;;5051017;28;20456;-67
2021/01/04 02:28:42;;;;;;;1.90;1.83;;;2.20;98.00;;;;;;5053042;28;20465;-65
2021/01/04 02:31:10;;;;;;;2.13;1.60;;;2.10;98.00;;;;;;5049641;28;20464;-67
2021/01/04 02:33:36;;;;;;;1.10;1.10;;;2.00;98.00;;;;;;5052840;28;20488;-64
2021/01/04 02:36:03;;;;;;;2.53;1.77;;;2.10;98.00;;;;;;5050758;28;20463;-65
2021/01/04 02:38:38;;;;;;;1.40;1.30;;;2.10;98.00;;;;;;5051521;28;20956;-66
2021/01/04 02:41:13;;;;;;;3.77;1.83;;;2.20;98.00;;;;;;5050581;28;20965;-65
2021/01/04 02:43:40;;;;;;;2.70;2.23;;;2.20;98.00;;;;;;5052642;28;20460;-66
2021/01/04 02:46:12;;;;;;;3.03;1.57;;;2.20;98.00;;;;;;5050723;28;20492;-65
2021/01/04 02:48:47;;;;;;;6.27;2.50;;;2.20;98.00;;;;;;5052585;28;20823;-65
2021/01/04 02:51:17;;;;;;;3.33;2.47;;;2.20;98.00;;;;;;5050356;28;21008;-64
2021/01/04 02:53:54;;;;;;;1.30;1.10;;;2.30;98.00;;;;;;5052347;28;20488;-64
2021/01/04 02:56:45;;;;;;;1.50;1.33;;;2.30;98.00;;;;;;5050229;28;20472;-64
2021/01/04 02:59:37;;;;;;;1.20;1.00;;;2.20;98.00;;;;;;5052435;28;20963;-65
2021/01/04 03:02:07;;;;;;;1.30;1.30;;;2.30;98.00;;;;;;5048988;28;20938;-64
2021/01/04 03:04:36;;;;;;;1.67;1.53;;;2.10;98.00;;;;;;5052329;28;20448;-65
2021/01/04 03:07:09;;;;;;;2.07;1.67;;;1.90;98.00;;;;;;5050089;28;21144;-64
2021/01/04 03:09:36;;;;;;;1.37;1.33;;;1.90;98.00;;;;;;5051160;28;20798;-64
2021/01/04 03:12:12;;;;;;;1.83;1.73;;;1.80;98.00;;;;;;5049600;28;20500;-65
2021/01/04 03:15:04;;;;;;;1.50;1.30;;;1.70;98.00;;;;;;5051390;28;20537;-65
2021/01/04 03:17:45;;;;;;;1.20;1.13;;;1.70;98.00;;;;;;5052409;28;20464;-64
2021/01/04 03:20:16;;;;;;;2.43;1.53;;;1.70;98.00;;;;;;5050211;28;20460;-64
2021/01/04 03:22:45;;;;;;;1.50;1.40;;;1.70;98.00;;;;;;5052189;28;20498;-65
2021/01/04 03:25:20;;;;;;;1.40;1.33;;;1.80;98.00;;;;;;5049846;28;20460;-65
2021/01/04 03:27:48;;;;;;;2.27;2.07;;;1.90;98.00;;;;;;5051739;28;20972;-66
2021/01/04 03:30:15;;;;;;;1.57;1.20;;;2.00;98.00;;;;;;5049007;28;20463;-66
2021/01/04 03:32:43;;;;;;;1.87;1.50;;;2.10;98.00;;;;;;5051014;28;20522;-65
2021/01/04 03:35:10;;;;;;;2.03;1.93;;;2.10;98.00;;;;;;5048903;28;20473;-65
2021/01/04 03:37:37;;;;;;;1.70;1.53;;;2.30;98.00;;;;;;5051744;28;20459;-64
2021/01/04 03:40:04;;;;;;;3.10;1.43;;;2.30;98.00;;;;;;5049624;28;20459;-64
2021/01/04 03:42:31;;;;;;;1.10;1.00;;;2.30;98.00;;;;;;5051565;28;20484;-67
2021/01/04 03:44:58;;;;;;;1.60;1.50;;;2.20;98.00;;;;;;5048346;28;20559;-66
2021/01/04 03:47:25;;;;;;;1.30;1.30;;;2.20;98.00;;;;;;5051468;28;20460;-66
2021/01/04 03:49:52;;;;;;;1.40;1.27;;;2.20;98.00;;;;;;5049531;28;20461;-66
2021/01/04 03:52:19;;;;;;;1.37;1.30;;;2.30;98.00;;;;;;5051442;28;20489;-64
2021/01/04 03:54:45;;;;;;;5.63;1.90;;;2.30;98.00;;;;;;5050945;28;20510;-67
2021/01/04 03:57:12;;;;;;;1.87;1.50;;;2.40;98.00;;;;;;5049675;28;20457;-65
2021/01/04 03:59:38;;;;;;;2.17;1.30;;;2.30;98.00;;;;;;5051375;28;20515;-65
2021/01/04 04:02:06;;;;;;;1.33;1.30;;;2.40;98.00;;;;;;5049077;28;20982;-65
2021/01/04 04:04:32;;;;;;;2.00;1.53;;;2.30;98.00;;;;;;5051060;28;20490;-66
2021/01/04 04:06:59;;;;;;;2.57;2.37;;;2.30;98.00;;;;;;5048942;28;20514;-65
2021/01/04 04:09:25;;;;;;;1.10;1.00;;;2.20;98.00;;;;;;5050087;28;20936;-66
2021/01/04 04:11:52;;;;;;;2.27;1.90;;;2.20;98.00;;;;;;5047836;28;20937;-64
2021/01/04 04:14:19;;;;;;;1.30;1.10;;;2.20;98.00;;;;;;5051404;28;20465;-64
2021/01/04 04:16:47;;;;;;;5.73;2.73;;;2.30;98.00;;;;;;5049154;28;20956;-66
2021/01/04 04:19:15;;;;;;;3.20;1.37;;;2.40;98.00;;;;;;5051428;28;20877;-65
2021/01/04 04:21:41;;;;;;;1.33;1.17;;;2.40;98.00;;;;;;5052732;28;20472;-65
2021/01/04 04:24:09;;;;;;;1.70;1.40;;;2.40;98.00;;;;;;5055524;28;20460;-66
2021/01/04 04:26:35;;;;;;;1.63;1.20;;;2.50;98.00;;;;;;5053448;28;20461;-66
2021/01/04 04:29:02;;;;;;;2.37;2.17;;;2.40;98.00;;;;;;5055190;28;20472;-65
2021/01/04 04:31:28;;;;;;;1.20;1.20;;;2.20;98.00;;;;;;5053007;28;20457;-65
2021/01/04 04:33:55;;;;;;;3.63;2.13;;;2.10;98.00;;;;;;5055222;28;21045;-65
2021/01/04 04:36:24;;;;;;;2.70;2.33;;;2.10;98.00;;;;;;5051929;28;20469;-65
2021/01/04 04:38:52;;;;;;;1.83;1.20;;;2.00;98.00;;;;;;5054967;28;20495;-65
2021/01/04 04:41:26;;;;;;;1.20;1.10;;;1.90;98.00;;;;;;5053033;28;20874;-65
2021/01/04 04:44:01;;;;;;;1.40;1.40;;;1.90;98.00;;;;;;5055034;28;20457;-66
2021/01/04 04:46:43;;;;;;;2.07;1.83;;;2.00;98.00;;;;;;5052773;28;20456;-65
2021/01/04 04:49:16;;;;;;;2.00;1.70;;;1.80;98.00;;;;;;5054827;28;20499;-64
2021/01/04 04:52:03;;;;;;;1.57;1.10;;;1.80;98.00;;;;;;5052757;28;20518;-65
2021/01/04 04:54:44;;;;;;;1.30;1.20;;;1.70;98.00;;;;;;5054775;28;20830;-64
2021/01/04 04:57:58;;;;;;;1.37;1.23;;;1.70;98.00;;;;;;5050959;28;20526;-66
2021/01/04 05:00:51;;;;;;;1.30;1.20;;;1.60;98.00;;;;;;5052541;28;20456;-65
2021/01/04 05:03:32;;;;;;;8.37;3.53;;;1.60;98.00;;;;;;5054069;28;20467;-64
2021/01/04 05:06:07;;;;;;;3.27;1.60;;;1.60;98.00;;;;;;5050871;28;20464;-65
2021/01/04 05:08:47;;;;;;;1.40;1.40;;;1.70;98.00;;;;;;5054613;28;20464;-65
2021/01/04 05:11:18;;;;;;;1.10;1.00;;;1.80;98.00;;;;;;5052210;28;20517;-64
2021/01/04 05:13:49;;;;;;;2.23;1.90;;;1.90;98.00;;;;;;5054122;28;20564;-66
2021/01/04 05:16:20;;;;;;;1.87;1.77;;;1.90;98.00;;;;;;5051914;28;20514;-66
2021/01/04 05:19:22;;;;;;;1.63;1.53;;;2.00;98.00;;;;;;5054310;28;20456;-65
2021/01/04 05:22:19;;;;;;;8.37;2.60;;;2.00;98.00;;;;;;5052125;28;20814;-65
2021/01/04 05:25:12;;;;;;;3.23;2.80;;;2.00;98.00;;;;;;5054250;28;20453;-66
2021/01/04 05:28:08;;;;;;;3.20;2.00;;;2.00;98.00;;;;;;5054202;28;20507;-65
2021/01/04 05:30:59;;;;;;;3.33;1.60;;;2.10;98.00;;;;;;5052251;28;20464;-66
2021/01/04 05:34:00;;;;;;;3.57;1.73;;;2.10;98.00;;;;;;5053278;28;20484;-65
2021/01/04 05:36:40;;;;;;;1.10;1.00;;;2.10;98.00;;;;;;5051990;28;20509;-64
2021/01/04 05:39:19;;;;;;;3.07;2.90;;;2.20;98.00;;;;;;5053865;28;20461;-64
2021/01/04 05:42:06;;;;;;;1.67;1.57;;;2.20;98.00;;;;;;5051750;28;20453;-64
2021/01/04 05:44:57;;;;;;;1.43;1.33;;;2.20;98.00;;;;;;5053933;28;20460;-64
2021/01/04 05:47:36;;;;;;;1.20;1.03;;;2.20;98.00;;;;;;5052236;28;20460;-67
2021/01/04 05:50:14;;;;;;;1.50;1.23;;;2.30;98.00;;;;;;5051559;28;20832;-66
2021/01/04 05:52:41;;;;;;;1.10;1.00;;;2.30;98.00;;;;;;5053674;28;20531;-66
2021/01/04 05:55:10;;;;;;;2.40;1.53;;;2.30;98.00;;;;;;5050408;28;20495;-68
2021/01/04 05:57:45;;;;;;;1.10;1.00;;;2.30;98.00;;;;;;5053459;28;20816;-68
2021/01/04 06:00:13;;;;;;;2.53;2.07;;;2.30;98.00;;;;;;5051188;28;20495;-65
2021/01/04 06:02:40;;;;;;;1.20;1.20;;;2.20;98.00;;;;;;5053355;28;20458;-66
2021/01/04 06:05:11;;;;;;;2.50;2.10;;;2.30;98.00;;;;;;5051352;28;20462;-67
2021/01/04 06:07:40;;;;;;;1.20;1.10;;;2.30;98.00;;;;;;5053361;28;20457;-66
2021/01/04 06:10:09;;;;;;;1.80;1.50;;;2.20;98.00;;;;;;5051052;28;20461;-65
2021/01/04 06:12:39;;;;;;;1.93;1.40;;;2.20;98.00;;;;;;5053071;28;20505;-65
2021/01/04 06:15:09;;;;;;;2.37;2.20;;;2.30;98.00;;;;;;5050908;28;20481;-65
2021/01/04 06:17:38;;;;;;;3.27;2.03;;;2.40;98.00;;;;;;5053025;28;20457;-66
2021/01/04 06:20:20;;;;;;;1.20;1.20;;;2.40;98.00;;;;;;5051010;28;20891;-65
2021/01/04 06:22:49;;;;;;;1.20;1.10;;;2.40;98.00;;;;;;5052995;28;20465;-65
2021/01/04 06:25:17;;;;;;;1.37;1.33;;;2.30;98.00;;;;;;5051066;28;20457;-65
2021/01/04 06:27:46;;;;;;;1.40;1.30;;;2.30;98.00;;;;;;5053008;28;20470;-66
2021/01/04 06:30:29;;;;;;;2.20;1.50;;;2.40;98.00;;;;;;5050979;28;20464;-66
2021/01/04 06:33:04;;;;;;;3.10;1.70;;;2.50;98.00;;;;;;5051840;28;20492;-65
2021/01/04 06:35:32;;;;;;;3.33;1.73;;;2.40;98.00;;;;;;5051011;28;20468;-64
2021/01/04 06:38:07;;;;;;;1.60;1.50;;;2.40;98.00;;;;;;5052849;28;20490;-64
2021/01/04 06:40:38;;;;;;;2.13;1.70;;;2.40;98.00;;;;;;5050799;28;20461;-66
2021/01/04 06:43:16;;;;;;;5.90;3.33;;;2.30;98.00;;;;;;5052675;28;20468;-65
2021/01/04 06:45:58;;;;;;;1.63;1.53;;;2.30;98.00;;;;;;5050685;28;20453;-64
2021/01/04 06:48:32;;;;;;;1.10;1.00;;;2.30;98.00;;;;;;5052581;28;20460;-64
2021/01/04 06:51:17;;;;;;;2.27;2.03;;;2.30;98.00;;;;;;5049303;28;20518;-64
2021/01/04 06:54:07;;;;;;;1.23;1.23;;;2.30;98.00;;;;;;5052394;28;20493;-65
2021/01/04 06:57:16;;;;;;;1.70;1.40;;;2.30;98.00;;;;;;5050359;28;20461;-65
2021/01/04 07:00:20;;;;;;;1.30;1.30;;;2.30;98.00;;;;;;5031772;28;21151;-65
2021/01/04 07:03:26;;;;;;;1.73;1.63;;;2.30;98.00;;;;;;5051264;28;20460;-65
2021/01/04 07:06:17;;;;;;;1.10;1.00;;;2.20;98.00;;;;;;5050231;28;20463;-65
2021/01/04 07:09:11;;;;;;;1.10;1.00;;;2.20;98.00;;;;;;5052191;28;20464;-66
2021/01/04 07:11:46;;;;;;;2.03;1.70;;;2.20;98.00;;;;;;5050194;28;20461;-66
2021/01/04 07:14:48;;;;;;;2.60;2.23;;;2.20;98.00;;;;;;5051855;28;20537;-67
2021/01/04 07:17:28;;;;;;;3.73;2.03;;;2.20;98.00;;;;;;5031992;28;20464;-64
2021/01/04 07:20:43;;;;;;;1.30;1.20;;;2.20;98.00;;;;;;5051908;28;20460;-67
2021/01/04 07:23:24;;;;;;;1.50;1.40;;;2.20;98.00;;;;;;5048264;28;20476;-65
2021/01/04 07:26:00;;;;;;;5.03;1.70;;;2.30;98.00;;;;;;5049601;28;20464;-65
2021/01/04 07:28:44;;;;;;;3.60;1.90;;;2.20;98.00;;;;;;5051702;28;20456;-66
2021/01/04 07:31:28;;;;;;;1.93;1.83;;;2.10;98.00;;;;;;5049607;28;20461;-65
2021/01/04 07:34:00;;;;;;;3.90;1.83;;;1.90;98.00;;;;;;5051595;28;20495;-64
2021/01/04 07:36:34;;;;;;;1.57;1.53;;;1.80;98.00;;;;;;5049948;28;20931;-65
2021/01/04 07:39:09;;;;;;;2.40;1.50;;;1.80;98.00;;;;;;5051538;28;20879;-65
2021/01/04 07:41:45;;;;;;;1.60;1.60;;;1.90;98.00;;;;;;5049681;28;20455;-65
2021/01/04 07:44:28;;;;;;;1.50;1.40;;;1.90;98.00;;;;;;5051310;28;21134;-64
2021/01/04 07:47:25;;;;;;;1.50;1.23;;;2.00;98.00;;;;;;5049555;28;20500;-65
2021/01/04 07:50:29;;;;;;;2.87;2.10;;;2.10;98.00;;;;;;5051499;28;20472;-64
2021/01/04 07:53:38;;;;;;;2.70;1.70;;;2.30;98.00;;;;;;5051436;28;20506;-64
2021/01/04 07:56:35;;;;;;;2.03;1.63;;;2.20;98.00;;;;;;5048855;28;20456;-65
2021/01/04 07:59:46;;;;;;;1.33;1.30;;;2.30;98.00;;;;;;5051111;28;20479;-65
2021/01/04 08:03:09;;;;;;;1.77;1.60;;;2.30;98.00;;;;;;5049189;28;20467;-66
2021/01/04 08:06:20;;;;;;;1.10;1.00;;;2.20;98.00;;;;;;5006988;28;20481;-65
2021/01/04 08:08:54;;;;;;;1.60;1.37;;;2.20;98.00;;;;;;5008907;28;20462;-64
2021/01/04 08:11:53;;;;;;;1.20;1.20;;;2.20;98.00;;;;;;5046904;28;20468;-66
2021/01/04 08:14:43;;;;;;;1.10;1.10;;;2.20;98.00;;;;;;5029833;28;20493;-65
2021/01/04 08:17:17;;;;;;;1.10;1.00;;;2.20;98.00;;;;;;5049006;28;20457;-64
2021/01/04 08:19:45;;;;;;;1.80;1.70;;;2.30;98.00;;;;;;5051143;28;21148;-65
2021/01/04 08:22:38;;;;;;;3.43;1.53;;;2.30;98.00;;;;;;5047995;28;20522;-65
2021/01/04 08:25:11;;;;;;;1.20;1.20;;;2.30;98.00;;;;;;5050529;28;20468;-65
2021/01/04 08:28:03;;;;;;;2.13;1.50;;;2.20;98.00;;;;;;5048932;28;20461;-65
2021/01/04 08:30:36;;;;;;;1.20;1.20;;;2.30;98.00;;;;;;5048316;28;20496;-65
2021/01/04 08:33:10;;;;;;;2.50;1.40;;;2.40;98.00;;;;;;5050302;28;20492;-65
2021/01/04 08:35:39;;;;;;;1.50;1.40;;;2.30;98.00;;;;;;5047516;28;21185;-65
2021/01/04 08:38:29;;;;;;;1.30;1.30;;;2.30;98.00;;;;;;5050680;28;20461;-65
2021/01/04 08:41:03;;;;;;;1.27;1.23;;;2.40;98.00;;;;;;5048203;28;20497;-66
2021/01/04 08:43:40;;;;;;;1.17;1.00;;;2.50;98.00;;;;;;5050597;28;20460;-66
2021/01/04 08:46:25;;;;;;;2.57;2.07;;;2.60;98.00;;;;;;5048280;28;20481;-65
2021/01/04 08:48:54;;;;;;;1.37;1.30;;;2.60;98.00;;;;;;5050430;28;20459;-66
2021/01/04 08:51:30;;;;;;;2.23;2.03;;;2.60;98.00;;;;;;5048384;28;20468;-65
2021/01/04 08:54:03;;;;;;;2.30;1.60;;;2.50;98.00;;;;;;5050456;28;20477;-64
2021/01/04 08:56:33;;;;;;;1.70;1.53;;;2.50;98.00;;;;;;5048198;28;20965;-64
2021/01/04 08:59:11;;;;;;;3.63;2.17;;;2.50;98.00;;;;;;5050183;28;20465;-65
2021/01/04 09:01:48;;;;;;;1.10;0.90;;;2.50;98.00;;;;;;5048467;28;20453;-64
2021/01/04 09:04:39;;;;;;;7.23;3.27;;;2.50;98.00;;;;;;5050350;28;20492;-65
2021/01/04 09:07:13;;;;;;;1.97;1.70;;;2.50;98.00;;;;;;5048718;28;20446;-65
2021/01/04 09:09:46;;;;;;;1.50;1.20;;;2.50;98.00;;;;;;5053474;28;20469;-64
2021/01/04 09:12:29;;;;;;;2.23;1.60;;;2.50;98.00;;;;;;5051101;28;20497;-65
2021/01/04 09:14:59;;;;;;;1.20;1.10;;;2.50;98.00;;;;;;5053150;28;20543;-65
2021/01/04 09:17:42;;;;;;;1.70;1.30;;;2.50;98.00;;;;;;5051321;28;20496;-65
2021/01/04 09:20:26;;;;;;;1.30;1.20;;;2.50;98.00;;;;;;5053836;28;20500;-65
2021/01/04 09:23:06;;;;;;;1.70;1.43;;;2.50;98.00;;;;;;5053669;28;20466;-63
2021/01/04 09:25:45;;;;;;;1.60;1.30;;;3.70;98.00;;;;;;5051352;28;20457;-64
2021/01/04 09:28:14;;;;;;;2.67;2.37;;;3.90;98.00;;;;;;5053497;28;20515;-64
2021/01/04 09:30:41;;;;;;;2.00;1.57;;;4.00;98.00;;;;;;5051997;28;20983;-65
2021/01/04 09:33:11;;;;;;;2.03;1.40;;;3.80;98.00;;;;;;5053478;28;20512;-63
2021/01/04 09:35:37;;;;;;;1.47;1.43;;;3.60;98.00;;;;;;5051346;28;20454;-67
2021/01/04 09:38:06;;;;;;;2.10;1.57;;;3.50;98.00;;;;;;5053195;28;20454;-65
2021/01/04 09:40:39;;;;;;;1.60;1.47;;;3.40;98.00;;;;;;5051864;28;20980;-65
2021/01/04 09:43:09;;;;;;;1.40;1.20;;;3.40;98.00;;;;;;5053323;28;20488;-64
2021/01/04 09:45:37;;;;;;;2.23;1.70;;;3.30;98.00;;;;;;5051263;28;20458;-66
2021/01/04 09:48:08;;;;;;;1.70;1.60;;;3.30;98.00;;;;;;5052887;28;20489;-65
2021/01/04 09:50:39;;;;;;;1.90;1.57;;;3.30;98.00;;;;;;5051600;28;20465;-65
2021/01/04 09:53:13;;;;;;;3.10;1.97;;;3.20;98.00;;;;;;5052945;28;20529;-65
2021/01/04 09:55:44;;;;;;;3.57;2.90;;;3.10;98.00;;;;;;5051347;28;20449;-65
2021/01/04 09:58:12;;;;;;;1.30;1.30;;;2.90;98.00;;;;;;5052704;28;20473;-64
2021/01/04 10:00:40;;;;;;;1.30;1.10;;;2.90;98.00;;;;;;5050889;28;21081;-66
2021/01/04 10:03:10;;;;;;;1.20;1.00;;;2.90;98.00;;;;;;5052722;28;20473;-66
2021/01/04 10:05:38;;;;;;;2.73;1.80;;;2.90;98.00;;;;;;5050889;28;20461;-65
2021/01/04 10:08:08;;;;;;;1.50;1.47;;;2.90;98.00;;;;;;5052838;28;20461;-65
2021/01/04 10:10:38;;;;;;;1.30;1.30;;;2.90;98.00;;;;;;5051017;28;20465;-64
2021/01/04 10:13:11;;;;;;;1.50;1.40;;;2.80;98.00;;;;;;5052579;28;21049;-66
2021/01/04 10:15:39;;;;;;;2.43;1.57;;;2.90;98.00;;;;;;5050683;28;20466;-65
2021/01/04 10:18:16;;;;;;;3.07;2.87;;;3.00;98.00;;;;;;5052439;28;20971;-67
2021/01/04 10:20:47;;;;;;;1.80;1.70;;;3.00;98.00;;;;;;5050727;28;20981;-64
2021/01/04 10:23:21;;;;;;;2.23;2.07;;;2.90;98.00;;;;;;5052770;28;20446;-64
2021/01/04 10:25:52;;;;;;;1.10;1.00;;;2.80;98.00;;;;;;5050587;28;20861;-65
2021/01/04 10:28:21;;;;;;;1.20;1.17;;;2.80;98.00;;;;;;5052917;28;20470;-65
2021/01/04 10:30:48;;;;;;;7.37;2.43;;;2.90;98.00;;;;;;5048506;28;20838;-65
2021/01/04 10:33:27;;;;;;;1.10;1.10;;;2.80;98.00;;;;;;5052487;28;20951;-66
2021/01/04 10:36:03;;;;;;;1.43;1.33;;;2.90;98.00;;;;;;5050146;28;20467;-68
2021/01/04 10:38:34;;;;;;;1.10;0.90;;;2.80;98.00;;;;;;5052516;28;20460;-68
2021/01/04 10:41:07;;;;;;;1.80;1.40;;;2.90;98.00;;;;;;5050330;28;20536;-66
2021/01/04 10:43:33;;;;;;;1.73;1.60;;;2.80;98.00;;;;;;5052604;28;20928;-66
2021/01/04 10:46:01;;;;;;;1.93;1.57;;;2.70;98.00;;;;;;5050248;28;20518;-66
2021/01/04 10:48:35;;;;;;;2.30;1.67;;;2.60;98.00;;;;;;5052375;28;20472;-65
2021/01/04 10:51:02;;;;;;;1.93;1.13;;;2.70;98.00;;;;;;5050058;28;20544;-64
2021/01/04 10:53:33;;;;;;;1.20;1.00;;;2.70;98.00;;;;;;5052033;28;20486;-66
2021/01/04 10:56:21;;;;;;;1.60;1.20;;;2.90;98.00;;;;;;5049693;28;20522;-65
2021/01/04 10:58:58;;;;;;;2.03;1.57;;;2.80;98.00;;;;;;5051969;28;20481;-66
2021/01/04 11:01:35;;;;;;;2.13;1.87;;;2.80;98.00;;;;;;5048942;28;20464;-64
2021/01/04 11:04:08;;;;;;;1.20;1.20;;;2.90;98.00;;;;;;5051842;28;20461;-65
2021/01/04 11:06:37;;;;;;;1.80;1.60;;;2.90;98.00;;;;;;5049656;28;20462;-66
2021/01/04 11:09:16;;;;;;;3.57;1.87;;;2.90;98.00;;;;;;5051857;28;20480;-65
2021/01/04 11:11:44;;;;;;;1.77;1.67;;;2.90;98.00;;;;;;5049722;28;20462;-67
2021/01/04 11:14:14;;;;;;;1.40;1.10;;;2.90;98.00;;;;;;5051628;28;20484;-65
2021/01/04 11:16:44;;;;;;;2.50;1.60;;;3.00;98.00;;;;;;5049215;28;20457;-66
2021/01/04 11:19:12;;;;;;;1.20;1.20;;;3.00;98.00;;;;;;5051612;28;20450;-65
2021/01/04 11:21:41;;;;;;;1.20;1.10;;;2.90;98.00;;;;;;5049906;28;20544;-67
2021/01/04 11:24:08;;;;;;;1.70;1.60;;;3.00;98.00;;;;;;5050259;28;20805;-65
2021/01/04 11:26:35;;;;;;;1.10;1.00;;;3.10;98.00;;;;;;5048799;28;20454;-65
2021/01/04 11:29:01;;;;;;;3.10;1.80;;;3.10;98.00;;;;;;5049891;28;21320;-65
2021/01/04 11:31:32;;;;;;;1.60;1.53;;;3.10;98.00;;;;;;5049123;28;20462;-65
2021/01/04 11:34:00;;;;;;;1.20;1.20;;;3.00;98.00;;;;;;5051312;28;20477;-65
2021/01/04 11:36:27;;;;;;;2.60;2.03;;;2.90;98.00;;;;;;5047448;28;20446;-64
2021/01/04 11:38:53;;;;;;;1.63;1.30;;;2.80;98.00;;;;;;5050759;28;20526;-65
2021/01/04 11:41:20;;;;;;;1.50;1.47;;;2.70;98.00;;;;;;5049194;28;20468;-68
2021/01/04 11:43:48;;;;;;;1.20;1.10;;;2.70;98.00;;;;;;5051139;28;20520;-67
2021/01/04 11:46:15;;;;;;;1.10;1.00;;;2.70;98.00;;;;;;5049111;28;20460;-65
2021/01/04 11:48:41;;;;;;;1.20;1.10;;;2.60;98.00;;;;;;5051118;28;20519;-65
2021/01/04 11:51:09;;;;;;;2.00;1.90;;;2.60;98.00;;;;;;5049089;28;20865;-66
2021/01/04 11:53:36;;;;;;;1.30;1.13;;;2.80;98.00;;;;;;5051066;28;20573;-64
2021/01/04 11:56:02;;;;;;;1.80;1.70;;;2.90;98.00;;;;;;5049048;28;20469;-65
2021/01/04 11:58:29;;;;;;;1.10;0.90;;;2.90;98.00;;;;;;5050885;28;20470;-65
2021/01/04 12:00:55;;;;;;;2.43;2.23;;;2.90;98.00;;;;;;5049144;28;20505;-65
2021/01/04 12:03:22;;;;;;;2.13;1.97;;;2.80;98.00;;;;;;5051068;28;20458;-65
2021/01/04 12:05:49;;;;;;;1.90;1.70;;;2.80;98.00;;;;;;5049020;28;20963;-66
2021/01/04 12:08:17;;;;;;;2.03;1.40;;;2.80;98.00;;;;;;5050707;28;20468;-65
2021/01/04 12:10:43;;;;;;;1.20;1.13;;;2.80;98.00;;;;;;5049110;28;20480;-67
2021/01/04 12:13:10;;;;;;;1.37;1.20;;;2.80;98.00;;;;;;5050725;28;20816;-65
2021/01/04 12:15:37;;;;;;;1.47;1.30;;;2.70;98.00;;;;;;5050339;28;20468;-66
2021/01/04 12:18:04;;;;;;;2.07;1.50;;;2.60;98.00;;;;;;5049832;28;20460;-66
2021/01/04 12:20:31;;;;;;;1.60;1.50;;;2.60;98.00;;;;;;5050948;28;20453;-66
2021/01/04 12:22:57;;;;;;;1.87;1.63;;;2.60;98.00;;;;;;5048963;28;20492;-65
2021/01/04 12:25:25;;;;;;;4.30;2.57;;;2.70;98.00;;;;;;5050676;28;21078;-65
2021/01/04 12:27:51;;;;;;;1.47;1.43;;;2.70;98.00;;;;;;5048277;28;20515;-65
2021/01/04 12:30:20;;;;;;;1.80;1.27;;;2.80;98.00;;;;;;5050891;28;20457;-66
2021/01/04 12:32:46;;;;;;;1.40;1.33;;;2.70;98.00;;;;;;5048491;28;20572;-67
2021/01/04 12:35:13;;;;;;;6.47;1.50;;;2.90;98.00;;;;;;5050664;28;20463;-66
2021/01/04 12:37:40;;;;;;;1.33;1.10;;;2.90;98.00;;;;;;5047927;28;20458;-66
2021/01/04 12:40:10;;;;;;;1.20;1.10;;;2.90;98.00;;;;;;5050649;28;20928;-65
2021/01/04 12:42:38;;;;;;;1.10;1.10;;;2.80;98.00;;;;;;5051757;28;20457;-65
2021/01/04 12:45:06;;;;;;;1.90;1.83;;;2.70;98.00;;;;;;5054496;28;20461;-65
2021/01/04 12:47:32;;;;;;;1.40;1.30;;;2.70;98.00;;;;;;5052029;28;20449;-65
2021/01/04 12:50:00;;;;;;;1.50;1.40;;;2.60;98.00;;;;;;5054487;28;20514;-66
2021/01/04 12:52:27;;;;;;;1.47;1.40;;;2.60;98.00;;;;;;5051981;28;20454;-64
2021/01/04 12:54:53;;;;;;;3.33;2.20;;;2.60;98.00;;;;;;5054078;28;20574;-65
2021/01/04 12:57:23;;;;;;;1.33;1.10;;;2.60;98.00;;;;;;5050622;28;20465;-65
2021/01/04 12:59:51;;;;;;;11.03;2.47;;;2.50;98.00;;;;;;5053880;28;20472;-65
2021/01/04 13:02:18;;;;;;;1.20;1.10;;;2.50;98.00;;;;;;5051902;28;20890;-67
2021/01/04 13:04:45;;;;;;;1.20;1.10;;;2.60;98.00;;;;;;5053862;28;20934;-66
2021/01/04 13:07:12;;;;;;;1.83;1.47;;;2.60;98.00;;;;;;5051698;28;20469;-66
2021/01/04 13:09:41;;;;;;;2.70;2.20;;;2.50;98.00;;;;;;5054224;28;20464;-65
2021/01/04 13:12:11;;;;;;;1.10;1.03;;;2.50;98.00;;;;;;5052018;28;20468;-66
2021/01/04 13:14:38;;;;;;;1.60;1.60;;;3.20;98.00;;;;;;5054094;28;20481;-66
2021/01/04 13:17:07;;;;;;;1.10;1.10;;;4.80;98.00;;;;;;5051492;28;20462;-67
2021/01/04 13:19:34;;;;;;;1.10;0.90;;;6.00;98.00;;;;;;5053999;28;20461;-65
2021/01/04 13:22:01;;;;;;;1.20;1.20;;;7.40;98.00;;;;;;5052306;28;20461;-66
2021/01/04 13:24:28;;;;;;;2.73;1.53;;;7.20;98.00;;;;;;5053727;28;20489;-64
2021/01/04 13:26:57;;;;;;;1.57;1.37;;;6.70;98.00;;;;;;5049962;28;20454;-65
2021/01/04 13:29:27;;;;;;;1.40;1.20;;;5.90;98.00;;;;;;5054241;28;20460;-64
2021/01/04 13:31:54;;;;;;;1.90;1.40;;;5.50;98.00;;;;;;5051813;28;20496;-67
2021/01/04 13:34:22;;;;;;;1.50;1.33;;;4.80;98.00;;;;;;5054137;28;20549;-66
2021/01/04 13:36:49;;;;;;;1.57;1.50;;;4.30;98.00;;;;;;5051815;28;21248;-66
2021/01/04 13:39:16;;;;;;;4.03;2.23;;;4.00;98.00;;;;;;5053857;28;20461;-65
2021/01/04 13:41:43;;;;;;;1.20;0.97;;;3.90;98.00;;;;;;5051697;28;20457;-66